SÍGUENOS

APP INUMET

Disponible en Google Play

Productos aeronáuticos

  • SIGMET
  • METAR / SPECI
  • TAF
  • AIREP
  • Aviso de aeródromo
  • Pronárea
  • Carta superficie
Fecha : 23/10/2017
FTUY 04 SUMU 23 23 30
SUMU TAF 232330Z 2400/2500 11005KT CAVOK TX22/2418Z TN10/2410Z PROB30 TEMPO 2403/2409 02008KT 1500 BR FEW010 BECMG 2410/2414 36010KT 9999 FEW020 BKN200=
SULS TAF 232330Z 2400/2500 07010KT CAVOK TX21/2418Z TN09/2410Z PROB40 TEMPO 2403/2409 02008KT 1200 BR FEW010 BECMG 2410/2414 36010KT 9999 FEW020 BKN200=
SUAA TAF 232330Z 2400/2500 06008KT CAVOK TX22/2418Z TN08/2410Z PROB40 TEMPO 2403/2409 02008KT 1200 BR FEW010 BECMG 2410/2414 36010KT 9999 FEW020 BKN200=
SUCA TAF 232330Z 2400/2500 02010KT CAVOK TX24/2418Z TN08/2410Z PROB30 TEMPO 2403/2409 02010KT 2500 BR FEW010 BECMG 2410/2414 36012KT 9999 FEW023 SCT200=
SUDU TAF 232330Z 2400/2500 05006KT 9999 FEW025 SCT200 TX23/2418Z TN06/2410Z PROB40 TEMPO 2403/2409 04008KT 0800 BCFG FEW010 BECMG 2410/2414 03010KT 9999 FEW020 SCT200=
SUSO TAF 232330Z 2400/2500 05008KT 9999 SCT025 BKN200 TX26/2418Z TN09/2410Z PROB30 TEMPO 2401/2409 05010G25KT 8000 TSRA BKN020 FEW040CB OVC070 BECMG 2410/2414 05012KT 9999 FEW025 SCT200=
SURV TAF 232330Z 2400/2500 07005KT CAVOK TX25/2418Z TN07/2410Z PROB40 TEMPO 2403/2409 07005KT 0800 BCFG FEW010 BECMG 2410/2414 06010KT 9999 FEW023 SCT080=

Predictor : Alejandro Curiel


Mensajes TAF vigentes - Internacionales


Argentina
TAF SAAR 232300Z 2400/2424 02010KT CAVOK TX27/2418Z TN12/2409Z BECMG 2404/2406 02005KT 7000 NSC BECMG 2410/2412 05010KT CAVOK
TAF SAEZ 232300Z 2400/2424 05005KT CAVOK TX24/2418Z TN14/2410Z TEMPO 2407/2410 VRB03KT 5000 BR BECMG 2413/2415 02010KT SCT040 SCT100 BECMG 2421/2423 03006KT CAVOK
TAF SACO 232300Z 2400/2424 05015KT CAVOK TX27/2418Z TN10/2410Z
TAF SABE 232300Z 2400/2424 09010KT CAVOK TX23/2418Z TN14/2412Z BECMG 2402/2404 05010KT BECMG 2408/2410 36010KT
TAF SAME 232300Z 2400/2424 05005KT CAVOK TX29/2420Z TN12/2410Z
Bolivia
TAF SLLP 232200Z 2400/2424 07006KT 9999 FEW015 TX17/2420Z TN03/2410Z PROB40 TEMPO 2407/2410 4000E VCFG FEW003 SCT012 BECMG 2413/2415 13008KT FEW015 FEW017CB TEMPO 2418/2422 8000 VCSH
Brasil
TAF SBSP 232212Z 2400/2424 13005KT 9999 BKN009 TN12/2408Z TX22/2417Z PROB40 2400/2402 5000 DZ BR OVC007 PROB30 2405/2409 3000 BR OVC004 BECMG 2410/2412 BKN015 BECMG 2415/2417 16008KT BKN025 BECMG 2420/2422 10005KT BKN010 RMK PHM
TAF SBGR 232212Z 2400/2506 15005KT 8000 BKN010 TN12/2408Z TX23/2418Z PROB30 2400/2402 5000 DZ BR OVC005 BECMG 2402/2404 OVC008 PROB30 2405/2410 3000 BR OVC005 FM241100 11005KT 9999 BKN015 BECMG 2413/2415 BKN030 BECMG 2420/2422 15008KT BKN012 BECMG 2500/2502 09005KT RMK PHM
TAF SBBR 232200Z 2400/2424 08008KT 8000 NSC TN18/2408Z TX27/2417Z PRO B30 2400/2401 TS SCT030 FEW040CB BECMG 2403/2404 17005KT CAVOK BECMG 2410/2412 08008KT 8000 NSC BECMG 2416/2418 FEW035TCU PROB30 241 9/2422 TS SCT030 FEW040CB RMK PDA
TAF SBRJ 232000Z 2400/2412 19005KT 6000 BKN012 TN19/2408Z TX22/2412Z PROB30 TEMPO 2404/2410 4000 RA BR BKN007 BECMG 2410/2412 14010KT 7000 BKN015 RMK PGY
TAF SBFI 231930Z 2400/2424 18002KT CAVOK TN18/2408Z TX30/2418Z BECMG 2400/2402 09005KT BECMG 2410/2412 02008KT RMK PDV
TAF SBFL 231930Z 2400/2424 13008KT CAVOK TN18/2408Z TX24/2418Z BECMG 2400/2402 36007KT 9999 SCT030 RMK PDV
TAF SBPA 231930Z 2400/2424 16009KT CAVOK TN12/2408Z TX24/2418Z BECMG 2400/2402 11007KT PROB30 2408/2411 6000 NSC BECMG 2414/2416 9999 FEW040 RMK PD V
Chile
TAF SCCI 232250Z 2400/2500 28020G30KT 9999 FEW025 SCT045 TX09/2417Z TN02/2409Z BECMG 2404/2406 27017G30KT TEMPO 2412/2418 27022G35KT 9000 SCT030 BECMG 2420/2422 27015KT FEW040
TAF SCEL 232230Z 2400/2424 18007KT 9999 FEW180 SCT200 TX26/2418Z TN09/2410Z BECMG 2400/2402 22012KT CAVOK BECMG 2402/2404 15004KT TEMPO 2408/2412 3000 BR BECMG 2416/2418 19008KT
Ecuador
SEQM 232250Z 2400/2424 04003KT 9999 BKN010 OVC023 FM240500 00000KT 8000 BCFG SCT008 BKN016 TEMPO 2407/2410 5000 DZ BCFG BKN005 FM241200 VRB03KT 9999 BKN020 OVC090 FM241800 36010KT 9999 BKN026 OVC100 TEMPO 2420/2422 SHRA TX24/2419Z TN/2411Z
EEUU
KMIA 240305Z 2403/2424 11012KT P6SM VCSH SCT020 BKN160 BKN250 FM241400 16010KT P6SM VCSH SCT025 BKN040 OVC100
KIAD 240257Z 2403/2506 15013G26KT 5SM -SHRA OVC025 FM240700 17009KT 4SM SHRA OVC025 FM241200 20007KT P6SM BKN010 FM241400 21006KT P6SM SCT035 FM241800 20007KT P6SM SCT050 FM250100 26005KT P6SM SCT050
KDCA 240257Z 2403/2424 15013G30KT 5SM -SHRA OVC025 FM240700 18012G37KT 4SM SHRA OVC025 FM240900 18008KT 4SM SHRA OVC025 FM241200 19008KT P6SM BKN010 FM241400 19008KT P6SM SCT020 FM242100 20008KT P6SM FEW250
KJFK 240242Z 2403/2506 15013G20KT P6SM BKN040 BKN250 FM240400 15015G24KT P6SM BKN025 BKN250 FM240800 15018G32KT P6SM SCT005 OVC025 WS020/17050KT FM240900 16018G32KT 5SM -SHRA SCT005 OVC012 WS020/17050KT FM241100 16019G31KT 3SM SHRA SCT005 OVC012 WS020/17050KT FM241300 16021G30KT 2SM +SHRA VCTS SCT005CB OVC012 WS020/17050KT FM241500 17022G36KT 2SM +SHRA VCTS SCT005CB OVC012 WS020/17050KT FM250200 21014G20KT 2SM +SHRA VCTS SCT005CB OVC012 WS020/17050KT FM250300 22012KT 2SM +SHRA VCTS SCT005CB OVC012 FM250500 17007KT 2SM +SHRA VCTS SCT005CB OVC012
KLGA 240242Z 2403/2424 15014G23KT P6SM SCT025 OVC250 FM240400 16016G28KT P6SM -SHRA BKN025 FM240800 16016G29KT 3SM SHRA SCT005 OVC012 WS020/17050KT FM241300 16018G27KT 2SM +SHRA VCTS SCT005CB OVC012 WS020/17050KT FM241500 17019G36KT 2SM +SHRA VCTS SCT005CB OVC012 WS020/17050KT FM242300 18016G29KT 2SM +SHRA VCTS SCT005CB OVC012 WS020/17050KT
Francia
TAF LFPO 232300Z 2400/2506 20008KT 8000 -DZ BKN006 TEMPO 2400/2412 2000 -DZ BKN004 BECMG 2412/2414 9999 NSW BKN015 BECMG 2416/2418 SCT020 TEMPO 2421/2424 3000 BR BKN005 PROB30 TEMPO 2504/2506 0800 BCFG
Paraguay
TAF SGAS 232128Z 2400/2500 12006KT CAVOK TX32/2418Z TN16/2410Z BECMG 2413/2415 VRB05KT
Venezuela
TAF SVMI 231600Z 2318/2418 26010KT 9999 FEW016 TX33/18Z TN23/09Z BECMG 2318/2322 27007KT SCT016

* Datos extraidos del Text DataServer de la NOAA (NOAA TEXT DATA SERVER)

Instituto Uruguayo de Meteorología

Dr. Javier Barrios Amorín 1488 - CP 11200
Mesa Central (598) 1895 - Desde el interior 21895

Montevideo - Uruguay